Time;durP1;ratioP1;P1;durP2;ratioP2;P2;SDS_P1;SDS_P2;PMS_P1;PMS_P2;Temp;Humidity;BMP_temperature;BMP_pressure;BME280_temperature;BME280_humidity;BME280_pressure;Samples;Min_cycle;Max_cycle;Signal;HPM_P1;HPM_P2
2022/06/23 00:00:28;;;;;;;3.90;2.70;;;;;;;;;;12626388;28;20051;-79
2022/06/23 00:06:37;;;;;;;3.10;2.80;;;;;;;;;;12644370;28;20383;-85
2022/06/23 00:12:40;;;;;;;4.05;3.00;;;;;;;;;;12643955;28;20040;-83
2022/06/23 00:18:42;;;;;;;2.97;2.67;;;;;;;;;;12610656;28;20038;-80
2022/06/23 00:24:45;;;;;;;4.65;2.90;;;;;;;;;;12626319;28;20387;-83
2022/06/23 00:30:51;;;;;;;3.33;2.50;;;;;;;;;;12625782;28;20483;-80
2022/06/23 00:37:01;;;;;;;4.18;2.75;;;;;;;;;;12625410;28;20056;-80
2022/06/23 00:43:04;;;;;;;4.25;3.22;;;;;;;;;;12611323;28;20391;-79
2022/06/23 00:49:14;;;;;;;3.35;3.05;;;;;;;;;;12625404;28;20576;-80
2022/06/23 00:55:36;;;;;;;2.90;2.70;;;;;;;;;;12642947;28;20423;-79
2022/06/23 01:01:39;;;;;;;;;;;;;;;;;;12625658;28;20025;-83
2022/06/23 01:07:42;;;;;;;3.35;3.05;;;;;;;;;;12614832;28;19916;-79
2022/06/23 01:13:49;;;;;;;2.97;2.78;;;;;;;;;;12651430;28;20055;-84
2022/06/23 01:19:53;;;;;;;4.45;3.45;;;;;;;;;;12639281;28;20039;-79
2022/06/23 01:26:16;;;;;;;4.25;3.78;;;;;;;;;;12658248;28;20036;-84
2022/06/23 01:32:23;;;;;;;2.80;2.60;;;;;;;;;;12616027;28;20048;-79
2022/06/23 01:38:38;;;;;;;4.85;4.00;;;;;;;;;;12632865;28;20059;-84
2022/06/23 01:44:51;;;;;;;3.72;2.65;;;;;;;;;;12631852;28;20471;-85
2022/06/23 01:50:55;;;;;;;4.78;4.20;;;;;;;;;;12632085;28;20050;-79
2022/06/23 01:57:03;;;;;;;5.10;4.70;;;;;;;;;;12649231;28;20407;-79
2022/06/23 02:03:16;;;;;;;5.30;4.80;;;;;;;;;;12651445;28;20040;-79
2022/06/23 02:09:38;;;;;;;4.95;4.50;;;;;;;;;;12649726;28;20367;-84
2022/06/23 02:15:40;;;;;;;;;;;;;;;;;;12630448;28;20040;-84
2022/06/23 02:21:53;;;;;;;4.50;3.50;;;;;;;;;;12630666;28;19915;-84
2022/06/23 02:27:59;;;;;;;5.43;4.28;;;;;;;;;;12631697;28;20422;-79
2022/06/23 02:34:28;;;;;;;5.80;4.10;;;;;;;;;;12612714;28;20036;-79
2022/06/23 02:40:38;;;;;;;4.40;4.10;;;;;;;;;;12635263;28;20119;-79
2022/06/23 02:46:40;;;;;;;4.57;4.05;;;;;;;;;;12629314;28;20032;-84
2022/06/23 02:52:42;;;;;;;3.80;3.50;;;;;;;;;;12646535;28;20042;-84
2022/06/23 02:58:47;;;;;;;3.88;3.58;;;;;;;;;;12629658;28;20399;-79
2022/06/23 03:05:19;;;;;;;4.45;4.10;;;;;;;;;;12646549;28;20281;-84
2022/06/23 03:11:51;;;;;;;;;;;;;;;;;;12587003;28;20055;-80
2022/06/23 03:17:49;;;;;;;5.45;4.95;;;;;;;;;;12646029;28;20295;-79
2022/06/23 03:23:54;;;;;;;6.53;5.82;;;;;;;;;;12627645;28;20390;-84
2022/06/23 03:30:00;;;;;;;6.03;5.32;;;;;;;;;;12628152;28;20050;-79
2022/06/23 03:36:05;;;;;;;5.40;4.93;;;;;;;;;;12609565;28;20052;-84
2022/06/23 03:42:13;;;;;;;6.05;5.30;;;;;;;;;;12609750;28;20043;-79
2022/06/23 03:48:25;;;;;;;5.97;5.10;;;;;;;;;;12644955;28;20480;-79
2022/06/23 03:54:40;;;;;;;6.95;5.50;;;;;;;;;;12627108;28;20036;-84
2022/06/23 04:00:44;;;;;;;4.03;3.17;;;;;;;;;;12609457;28;20032;-85
2022/06/23 04:06:47;;;;;;;6.45;5.85;;;;;;;;;;12644547;28;20036;-84
2022/06/23 04:12:52;;;;;;;5.85;5.35;;;;;;;;;;12611368;28;20044;-79
2022/06/23 04:18:54;;;;;;;7.68;5.43;;;;;;;;;;12609335;28;20036;-84
2022/06/23 04:24:56;;;;;;;;;;;;;;;;;;12629194;28;20204;-84
2022/06/23 04:30:58;;;;;;;6.20;5.70;;;;;;;;;;12641892;28;19934;-84
2022/06/23 04:37:00;;;;;;;5.72;5.28;;;;;;;;;;12605289;28;20056;-83
2022/06/23 04:43:02;;;;;;;8.73;7.32;;;;;;;;;;12641364;28;20024;-82
2022/06/23 04:49:04;;;;;;;;;;;;;;;;;;12615039;28;20047;-79
2022/06/23 04:55:10;;;;;;;8.75;6.70;;;;;;;;;;12614154;28;20383;-84
2022/06/23 05:01:14;;;;;;;7.72;6.47;;;;;;;;;;12650196;28;20240;-83
2022/06/23 05:07:23;;;;;;;11.45;8.48;;;;;;;;;;12638598;28;20506;-83
2022/06/23 05:13:28;;;;;;;8.63;7.20;;;;;;;;;;12636541;28;20040;-84
2022/06/23 05:19:35;;;;;;;6.72;6.10;;;;;;;;;;12629624;28;20114;-79
2022/06/23 05:25:40;;;;;;;10.57;9.00;;;;;;;;;;12629062;28;20392;-79
2022/06/23 05:31:42;;;;;;;8.45;7.65;;;;;;;;;;12653812;28;20028;-80
2022/06/23 05:37:43;;;;;;;;;;;;;;;;;;12634280;28;20132;-85
2022/06/23 05:43:47;;;;;;;11.60;10.53;;;;;;;;;;12631069;28;19908;-86
2022/06/23 05:49:57;;;;;;;9.02;8.25;;;;;;;;;;12648681;28;20289;-86
2022/06/23 05:56:08;;;;;;;10.57;9.05;;;;;;;;;;12652642;28;20037;-81
2022/06/23 06:02:12;;;;;;;12.77;11.47;;;;;;;;;;12630895;28;20040;-85
2022/06/23 06:08:17;;;;;;;10.93;9.80;;;;;;;;;;12610491;28;20039;-83
2022/06/23 06:14:20;;;;;;;14.13;11.80;;;;;;;;;;12625685;28;20395;-86
2022/06/23 06:20:24;;;;;;;8.77;6.43;;;;;;;;;;12627028;28;20039;-86
2022/06/23 06:26:35;;;;;;;7.10;6.45;;;;;;;;;;12644175;28;20476;-87
2022/06/23 06:32:38;;;;;;;10.20;9.13;;;;;;;;;;12625159;28;20054;-85
2022/06/23 06:38:40;;;;;;;5.22;4.80;;;;;;;;;;12642636;28;20044;-84
2022/06/23 06:44:43;;;;;;;7.07;6.00;;;;;;;;;;12643667;28;20379;-84
2022/06/23 06:50:51;;;;;;;8.60;7.00;;;;;;;;;;12631426;28;20477;-85
2022/06/23 06:56:57;;;;;;;6.50;5.28;;;;;;;;;;12622769;28;20500;-85
2022/06/23 07:03:03;;;;;;;6.32;4.97;;;;;;;;;;12628122;28;20024;-86
2022/06/23 07:09:25;;;;;;;7.70;6.40;;;;;;;;;;12636615;28;20038;-89
2022/06/23 07:15:26;;;;;;;;;;;;;;;;;;12636191;28;20058;-84
2022/06/23 07:21:37;;;;;;;6.55;5.90;;;;;;;;;;12615054;28;20282;-87
2022/06/23 07:27:40;;;;;;;7.03;5.77;;;;;;;;;;12625512;28;20070;-84
2022/06/23 07:33:47;;;;;;;6.43;5.05;;;;;;;;;;12623661;28;20047;-86
2022/06/23 07:39:53;;;;;;;6.90;5.50;;;;;;;;;;12613941;28;20047;-87
2022/06/23 07:45:57;;;;;;;6.13;4.32;;;;;;;;;;12622368;28;20032;-85
2022/06/23 07:52:01;;;;;;;3.50;3.20;;;;;;;;;;12633286;28;20058;-86
2022/06/23 07:58:02;;;;;;;6.40;4.25;;;;;;;;;;12659107;28;20040;-85
2022/06/23 08:04:24;;;;;;;4.93;3.47;;;;;;;;;;12644368;28;20051;-85
2022/06/23 08:10:27;;;;;;;4.63;3.88;;;;;;;;;;12622436;28;20043;-83
2022/06/23 08:16:52;;;;;;;4.32;3.67;;;;;;;;;;12639924;28;20047;-87
2022/06/23 08:22:55;;;;;;;4.47;4.03;;;;;;;;;;12640806;28;20036;-78
2022/06/23 08:28:59;;;;;;;5.55;5.05;;;;;;;;;;12626780;28;20043;-80
2022/06/23 08:35:01;;;;;;;4.50;4.15;;;;;;;;;;12642399;28;20044;-80
2022/06/23 08:41:02;;;;;;;7.05;4.50;;;;;;;;;;12629739;28;20047;-79
2022/06/23 08:47:21;;;;;;;4.00;3.70;;;;;;;;;;12583453;28;20504;-79
2022/06/23 08:53:39;;;;;;;5.85;3.85;;;;;;;;;;12583268;28;20036;-84
2022/06/23 08:59:47;;;;;;;4.78;3.88;;;;;;;;;;12583949;28;20040;-81
2022/06/23 09:06:01;;;;;;;3.20;2.92;;;;;;;;;;12583852;28;20039;-82
2022/06/23 09:12:08;;;;;;;5.07;3.10;;;;;;;;;;12583282;28;20041;-82
2022/06/23 09:18:20;;;;;;;3.20;2.90;;;;;;;;;;12601872;28;20052;-82
2022/06/23 09:24:37;;;;;;;3.22;2.90;;;;;;;;;;12608134;28;20028;-80
2022/06/23 09:30:40;;;;;;;3.78;2.75;;;;;;;;;;12659773;28;20032;-82
2022/06/23 09:36:42;;;;;;;4.82;2.65;;;;;;;;;;12659713;28;20048;-82
2022/06/23 09:42:43;;;;;;;4.82;3.20;;;;;;;;;;12631438;28;20063;-81
2022/06/23 09:48:45;;;;;;;21.55;4.05;;;;;;;;;;12647558;28;20028;-81
2022/06/23 09:55:06;;;;;;;3.75;3.30;;;;;;;;;;12630247;28;20040;-82
2022/06/23 10:01:23;;;;;;;3.03;2.63;;;;;;;;;;12630281;28;20028;-81
2022/06/23 10:07:31;;;;;;;4.18;2.83;;;;;;;;;;12629698;28;20032;-83
2022/06/23 10:13:45;;;;;;;2.65;2.45;;;;;;;;;;12649065;28;20044;-82
2022/06/23 10:19:46;;;;;;;4.72;3.10;;;;;;;;;;12628390;28;20373;-85
2022/06/23 10:25:55;;;;;;;3.97;3.58;;;;;;;;;;12656359;28;20032;-87
2022/06/23 10:32:15;;;;;;;3.47;2.78;;;;;;;;;;12664474;28;20020;-86
2022/06/23 10:38:20;;;;;;;3.13;2.83;;;;;;;;;;12629069;28;20070;-77
2022/06/23 10:44:21;;;;;;;2.90;2.60;;;;;;;;;;12647053;28;20032;-78
2022/06/23 10:50:23;;;;;;;2.58;2.35;;;;;;;;;;12625416;28;20039;-77
2022/06/23 10:56:31;;;;;;;7.80;3.60;;;;;;;;;;12611601;28;20043;-82
2022/06/23 11:02:39;;;;;;;4.13;3.72;;;;;;;;;;12611361;28;20032;-79
2022/06/23 11:08:43;;;;;;;4.57;3.13;;;;;;;;;;12628266;28;20032;-82
2022/06/23 11:14:54;;;;;;;3.15;2.63;;;;;;;;;;12646045;28;20036;-82
2022/06/23 11:20:55;;;;;;;;;;;;;;;;;;12645838;28;20036;-77
2022/06/23 11:27:03;;;;;;;2.30;2.10;;;;;;;;;;12645052;28;20413;-78
2022/06/23 11:33:31;;;;;;;2.28;2.08;;;;;;;;;;12610283;28;20048;-82
2022/06/23 11:39:36;;;;;;;4.15;2.63;;;;;;;;;;12606957;28;20048;-78
2022/06/23 11:45:38;;;;;;;3.35;2.55;;;;;;;;;;12627348;28;20387;-77
2022/06/23 11:51:42;;;;;;;2.35;2.05;;;;;;;;;;12643816;28;20032;-81
2022/06/23 11:57:58;;;;;;;3.78;2.47;;;;;;;;;;12645729;28;20066;-78
2022/06/23 12:04:15;;;;;;;3.38;2.53;;;;;;;;;;12644157;28;20031;-77
2022/06/23 12:10:22;;;;;;;3.95;2.70;;;;;;;;;;12626164;28;20063;-81
2022/06/23 12:16:24;;;;;;;3.92;2.30;;;;;;;;;;12610281;28;20052;-82
2022/06/23 12:22:32;;;;;;;2.83;2.40;;;;;;;;;;12625439;28;20035;-82
2022/06/23 12:28:34;;;;;;;2.20;2.05;;;;;;;;;;12625439;28;20086;-77
2022/06/23 12:34:58;;;;;;;3.95;2.45;;;;;;;;;;12625433;28;20044;-77
2022/06/23 12:41:23;;;;;;;3.65;2.55;;;;;;;;;;12643953;28;20048;-79
2022/06/23 12:47:40;;;;;;;1.88;1.77;;;;;;;;;;12612237;28;20047;-84
2022/06/23 12:53:51;;;;;;;2.42;2.22;;;;;;;;;;12624789;28;20048;-84
2022/06/23 12:59:52;;;;;;;4.40;2.15;;;;;;;;;;12645336;28;20050;-84
2022/06/23 13:06:13;;;;;;;3.13;2.50;;;;;;;;;;12651592;28;20039;-85
2022/06/23 13:12:14;;;;;;;;;;;;;;;;;;12618079;28;20044;-84
2022/06/23 13:18:39;;;;;;;3.03;1.95;;;;;;;;;;12633339;28;19954;-78
2022/06/23 13:24:43;;;;;;;3.95;2.50;;;;;;;;;;12622824;28;20036;-78
2022/06/23 13:30:50;;;;;;;3.97;2.92;;;;;;;;;;12633304;28;20028;-84
2022/06/23 13:36:58;;;;;;;3.60;2.95;;;;;;;;;;12632848;28;20055;-83
2022/06/23 13:43:08;;;;;;;2.65;2.35;;;;;;;;;;12632161;28;20051;-83
2022/06/23 13:49:22;;;;;;;4.40;2.53;;;;;;;;;;12632275;28;20027;-81
2022/06/23 13:55:29;;;;;;;4.40;2.90;;;;;;;;;;12650426;28;20044;-83
2022/06/23 14:01:36;;;;;;;5.20;2.95;;;;;;;;;;12631045;28;20039;-83
2022/06/23 14:07:50;;;;;;;7.40;3.25;;;;;;;;;;12648726;28;20039;-84
2022/06/23 14:14:03;;;;;;;5.60;2.75;;;;;;;;;;12630022;28;20043;-83
2022/06/23 14:20:25;;;;;;;5.88;3.45;;;;;;;;;;12613167;28;20032;-83
2022/06/23 14:26:35;;;;;;;4.80;2.65;;;;;;;;;;12629539;28;20051;-81
2022/06/23 14:32:50;;;;;;;4.82;2.85;;;;;;;;;;12648483;28;20042;-82
2022/06/23 14:38:54;;;;;;;3.28;2.55;;;;;;;;;;12647565;28;20055;-83
2022/06/23 14:45:16;;;;;;;6.65;3.25;;;;;;;;;;12629390;28;20039;-83
2022/06/23 14:51:18;;;;;;;4.85;3.47;;;;;;;;;;12578983;28;20507;-79
2022/06/23 14:57:39;;;;;;;5.88;3.92;;;;;;;;;;12628337;28;20044;-89
2022/06/23 15:03:56;;;;;;;4.05;2.90;;;;;;;;;;12612511;28;20037;-79
2022/06/23 15:10:09;;;;;;;5.18;3.10;;;;;;;;;;12649684;28;20054;-84
2022/06/23 15:16:15;;;;;;;4.13;3.13;;;;;;;;;;12648025;28;20052;-81
2022/06/23 15:28:46;;;;;;;5.30;3.35;;;;;;;;;;12629191;28;20043;-80
2022/06/23 15:34:50;;;;;;;4.45;2.90;;;;;;;;;;12634271;28;20067;-78
2022/06/23 15:40:58;;;;;;;3.67;3.33;;;;;;;;;;12644656;28;20071;-81
2022/06/23 15:47:06;;;;;;;5.63;3.92;;;;;;;;;;12649175;28;20115;-78
2022/06/23 15:53:12;;;;;;;4.57;2.88;;;;;;;;;;12610637;28;20036;-78
2022/06/23 15:59:19;;;;;;;7.28;3.95;;;;;;;;;;12644961;28;20480;-79
2022/06/23 16:05:22;;;;;;;8.15;4.10;;;;;;;;;;12644602;28;20475;-89
2022/06/23 16:11:45;;;;;;;7.00;3.20;;;;;;;;;;12625267;28;20036;-83
2022/06/23 16:17:49;;;;;;;7.25;3.30;;;;;;;;;;12642516;28;20074;-87
2022/06/23 16:24:01;;;;;;;4.40;2.60;;;;;;;;;;12625878;28;20028;-82
2022/06/23 16:30:23;;;;;;;6.20;3.28;;;;;;;;;;12624806;28;20059;-76
2022/06/23 16:36:34;;;;;;;10.02;3.45;;;;;;;;;;12648958;28;20043;-81
2022/06/23 16:42:40;;;;;;;9.00;3.50;;;;;;;;;;12635750;28;20515;-82
2022/06/23 16:48:41;;;;;;;10.95;3.38;;;;;;;;;;12652301;28;20043;-78
2022/06/23 16:54:47;;;;;;;9.90;3.20;;;;;;;;;;12633570;28;20384;-78
2022/06/23 17:01:05;;;;;;;8.82;3.45;;;;;;;;;;12632787;28;20621;-84
2022/06/23 17:07:20;;;;;;;5.78;3.00;;;;;;;;;;12634090;28;20032;-84
2022/06/23 17:13:28;;;;;;;9.98;3.22;;;;;;;;;;12651775;28;20063;-78
2022/06/23 17:19:38;;;;;;;16.27;3.38;;;;;;;;;;12650697;28;20514;-78
2022/06/23 17:25:46;;;;;;;8.90;3.43;;;;;;;;;;12650975;28;20043;-79
2022/06/23 17:31:55;;;;;;;7.60;2.90;;;;;;;;;;12660937;28;20895;-80
2022/06/23 17:38:02;;;;;;;9.25;2.95;;;;;;;;;;12632070;28;20052;-84
2022/06/23 17:44:07;;;;;;;7.90;3.13;;;;;;;;;;12632270;28;20032;-85
2022/06/23 17:50:09;;;;;;;9.88;3.28;;;;;;;;;;12649001;28;20479;-79
2022/06/23 17:56:15;;;;;;;9.45;3.33;;;;;;;;;;12631377;28;20047;-86
2022/06/23 18:02:25;;;;;;;9.82;3.20;;;;;;;;;;12631416;28;20039;-86
2022/06/23 18:08:35;;;;;;;9.43;3.05;;;;;;;;;;12650013;28;20118;-79
2022/06/23 18:14:47;;;;;;;7.90;3.03;;;;;;;;;;12630880;28;20051;-85
2022/06/23 18:20:52;;;;;;;10.93;3.55;;;;;;;;;;12630544;28;20034;-85
2022/06/23 18:26:58;;;;;;;7.82;3.08;;;;;;;;;;12629610;28;20391;-80
2022/06/23 18:33:16;;;;;;;11.00;4.10;;;;;;;;;;12647405;28;20020;-79
2022/06/23 18:39:27;;;;;;;10.02;3.83;;;;;;;;;;12629349;28;20063;-79
2022/06/23 18:45:35;;;;;;;5.95;3.65;;;;;;;;;;12628779;28;20031;-85
2022/06/23 18:51:37;;;;;;;11.93;3.83;;;;;;;;;;12628489;28;20050;-85
2022/06/23 18:57:40;;;;;;;9.02;3.28;;;;;;;;;;12628422;28;20063;-85
2022/06/23 19:03:50;;;;;;;5.75;3.03;;;;;;;;;;12646208;28;20036;-79
2022/06/23 19:09:52;;;;;;;5.55;2.58;;;;;;;;;;12612403;28;20032;-79
2022/06/23 19:16:02;;;;;;;7.88;3.15;;;;;;;;;;12646156;28;20050;-79
2022/06/23 19:22:07;;;;;;;7.70;3.30;;;;;;;;;;12646147;28;20028;-85
2022/06/23 19:28:15;;;;;;;8.82;3.42;;;;;;;;;;12627500;28;20043;-85
2022/06/23 19:34:20;;;;;;;8.73;2.95;;;;;;;;;;12645007;28;20051;-80
2022/06/23 19:40:26;;;;;;;6.82;2.88;;;;;;;;;;12645419;28;20060;-78
2022/06/23 19:46:28;;;;;;;10.63;4.00;;;;;;;;;;12644421;28;20036;-82
2022/06/23 19:52:34;;;;;;;8.98;2.75;;;;;;;;;;12645179;28;20043;-86
2022/06/23 19:58:43;;;;;;;7.60;2.95;;;;;;;;;;12647948;28;20032;-79
2022/06/23 20:04:49;;;;;;;6.18;3.25;;;;;;;;;;12646558;28;20028;-85
2022/06/23 20:11:16;;;;;;;8.32;3.17;;;;;;;;;;12632778;28;20032;-86
2022/06/23 20:17:32;;;;;;;6.35;3.08;;;;;;;;;;12657198;28;20439;-85
2022/06/23 20:23:41;;;;;;;5.63;2.75;;;;;;;;;;12623501;28;20039;-84
2022/06/23 20:29:52;;;;;;;6.82;2.83;;;;;;;;;;12660035;28;20028;-86
2022/06/23 20:35:53;;;;;;;;;;;;;;;;;;12620326;28;20035;-84
2022/06/23 20:41:56;;;;;;;;;;;;;;;;;;12637220;28;19920;-84
2022/06/23 20:48:07;;;;;;;5.90;2.67;;;;;;;;;;12637131;28;19923;-84
2022/06/23 20:54:24;;;;;;;8.27;3.05;;;;;;;;;;12636196;28;20040;-84
2022/06/23 21:00:28;;;;;;;8.80;3.92;;;;;;;;;;12635569;28;20032;-78
2022/06/23 21:06:50;;;;;;;8.32;4.13;;;;;;;;;;12634611;28;20039;-78
2022/06/23 21:12:55;;;;;;;4.15;2.78;;;;;;;;;;12652971;28;20072;-80
2022/06/23 21:19:12;;;;;;;3.13;2.78;;;;;;;;;;12635145;28;20403;-84
2022/06/23 21:25:32;;;;;;;3.47;2.38;;;;;;;;;;12617833;28;20043;-85
2022/06/23 21:31:37;;;;;;;3.53;2.33;;;;;;;;;;12634847;28;20063;-79
2022/06/23 21:37:41;;;;;;;3.72;1.70;;;;;;;;;;12651267;28;20484;-85
2022/06/23 21:43:47;;;;;;;3.45;1.92;;;;;;;;;;12633493;28;20039;-80
2022/06/23 21:49:58;;;;;;;2.00;1.90;;;;;;;;;;12652400;28;20039;-86
2022/06/23 21:56:11;;;;;;;2.70;2.00;;;;;;;;;;12654916;28;20048;-80
2022/06/23 22:02:16;;;;;;;1.40;1.30;;;;;;;;;;12654004;28;20035;-80
2022/06/23 22:08:37;;;;;;;1.67;1.58;;;;;;;;;;12652148;28;20040;-86
2022/06/23 22:14:41;;;;;;;1.92;1.58;;;;;;;;;;12631396;28;20048;-84
2022/06/23 22:20:48;;;;;;;2.38;1.40;;;;;;;;;;12631408;28;20479;-79
2022/06/23 22:26:55;;;;;;;2.92;1.45;;;;;;;;;;12630737;28;20036;-85
2022/06/23 22:32:58;;;;;;;1.42;1.33;;;;;;;;;;12629620;28;20035;-85
2022/06/23 22:39:02;;;;;;;1.77;1.63;;;;;;;;;;12631877;28;20094;-78
2022/06/23 22:45:09;;;;;;;1.40;1.30;;;;;;;;;;12630092;28;20040;-85
2022/06/23 22:51:12;;;;;;;1.42;1.27;;;;;;;;;;12647456;28;20399;-85
2022/06/23 22:57:32;;;;;;;1.38;1.27;;;;;;;;;;12612433;28;20483;-79
2022/06/23 23:03:34;;;;;;;2.22;1.20;;;;;;;;;;12635606;28;20055;-79
2022/06/23 23:09:42;;;;;;;1.10;0.80;;;;;;;;;;12629937;28;20082;-79
2022/06/23 23:15:47;;;;;;;3.47;1.50;;;;;;;;;;12647424;28;20048;-79
2022/06/23 23:21:48;;;;;;;2.88;1.05;;;;;;;;;;12628665;28;20036;-78
2022/06/23 23:28:09;;;;;;;1.98;1.30;;;;;;;;;;12647908;28;20032;-78
2022/06/23 23:34:18;;;;;;;1.40;0.90;;;;;;;;;;12645909;28;20119;-85
2022/06/23 23:40:23;;;;;;;2.25;1.25;;;;;;;;;;12627754;28;20298;-84
2022/06/23 23:46:34;;;;;;;1.60;1.50;;;;;;;;;;12645763;28;20027;-86
2022/06/23 23:52:38;;;;;;;1.38;1.15;;;;;;;;;;12648080;28;20032;-85
2022/06/23 23:58:43;;;;;;;1.38;0.85;;;;;;;;;;12627145;28;20055;-85
